createdAt,value
2022-08-20T00:01:44.179Z,93119.22
2022-08-20T00:04:11.909Z,93123.16
2022-08-20T00:06:40.503Z,93123.34
2022-08-20T00:09:07.940Z,93129.06
2022-08-20T00:11:35.920Z,93143.50
2022-08-20T00:14:05.964Z,93145.16
2022-08-20T00:16:36.807Z,93134.44
2022-08-20T00:19:07.752Z,93137.69
2022-08-20T00:21:36.510Z,93144.56
2022-08-20T00:24:05.495Z,93147.34
2022-08-20T00:26:33.132Z,93143.31
2022-08-20T00:29:00.834Z,93140.63
2022-08-20T00:31:28.931Z,93137.47
2022-08-20T00:33:56.241Z,93138.47
2022-08-20T00:36:32.340Z,93142.22
2022-08-20T00:39:01.363Z,93140.94
2022-08-20T00:41:29.711Z,93138.12
2022-08-20T00:44:06.297Z,93131.75
2022-08-20T00:46:34.922Z,93134.13
2022-08-20T00:49:03.949Z,93132.78
2022-08-20T00:51:38.369Z,93134.50
2022-08-20T00:54:11.625Z,93126.16
2022-08-20T00:56:39.709Z,93127.94
2022-08-20T00:59:12.501Z,93130.41
2022-08-20T01:01:55.473Z,93125.94
2022-08-20T01:04:26.531Z,93132.72
2022-08-20T01:06:54.406Z,93124.31
2022-08-20T01:09:49.945Z,93121.91
2022-08-20T01:12:13.817Z,93115.28
2022-08-20T01:14:46.654Z,93118.78
2022-08-20T01:17:22.435Z,93115.84
2022-08-20T01:20:08.584Z,93126.22
2022-08-20T01:23:04.417Z,93117.69
2022-08-20T01:26:00.481Z,93120.16
2022-08-20T01:28:39.052Z,93119.16
2022-08-20T01:31:08.700Z,93109.25
2022-08-20T01:33:36.792Z,93100.53
2022-08-20T01:36:06.547Z,93112.31
2022-08-20T01:38:34.993Z,93107.47
2022-08-20T01:41:33.882Z,93103.53
2022-08-20T01:44:01.451Z,93103.47
2022-08-20T01:46:34.985Z,93101.50
2022-08-20T01:49:15.632Z,93109.78
2022-08-20T01:51:49.665Z,93100.97
2022-08-20T01:54:17.576Z,93105.00
2022-08-20T01:56:57.167Z,93095.84
2022-08-20T01:59:25.474Z,93092.12
2022-08-20T02:01:53.329Z,93089.66
2022-08-20T02:04:21.571Z,93090.44
2022-08-20T02:06:57.923Z,93092.19
2022-08-20T02:09:29.721Z,93090.06
2022-08-20T02:11:59.226Z,93088.37
2022-08-20T02:14:27.752Z,93083.53
2022-08-20T02:16:58.718Z,93072.69
2022-08-20T02:19:51.924Z,93072.94
2022-08-20T02:22:31.913Z,93073.44
2022-08-20T02:24:59.195Z,93066.94
2022-08-20T02:27:26.825Z,93066.16
2022-08-20T02:29:55.075Z,93071.00
2022-08-20T02:32:24.927Z,93082.94
2022-08-20T02:35:07.349Z,93077.25
2022-08-20T02:37:36.691Z,93074.59
2022-08-20T02:40:08.279Z,93086.47
2022-08-20T02:42:39.438Z,93076.72
2022-08-20T02:45:08.618Z,93072.06
2022-08-20T02:47:41.812Z,93065.63
2022-08-20T02:50:14.254Z,93071.38
2022-08-20T02:52:42.742Z,93078.81
2022-08-20T02:55:27.723Z,93076.81
2022-08-20T02:57:59.060Z,93079.47
2022-08-20T03:00:28.935Z,93078.09
2022-08-20T03:03:00.610Z,93083.06
2022-08-20T03:05:28.785Z,93081.44
2022-08-20T03:07:59.494Z,93083.78
2022-08-20T03:10:32.335Z,93086.41
2022-08-20T03:13:02.469Z,93087.47
2022-08-20T03:15:31.687Z,93089.50
2022-08-20T03:17:59.354Z,93095.19
2022-08-20T03:20:27.941Z,93082.16
2022-08-20T03:22:55.960Z,93086.53
2022-08-20T03:25:24.288Z,93088.63
2022-08-20T03:27:55.011Z,93084.12
2022-08-20T03:30:26.280Z,93084.03
2022-08-20T03:32:55.519Z,93087.19
2022-08-20T03:35:25.166Z,93075.81
2022-08-20T03:37:55.670Z,93084.97
2022-08-20T03:40:27.987Z,93088.47
2022-08-20T03:42:56.575Z,93084.47
2022-08-20T03:45:25.950Z,93080.97
2022-08-20T03:47:57.470Z,93089.53
2022-08-20T03:50:29.299Z,93089.41
2022-08-20T03:52:57.893Z,93092.25
2022-08-20T03:55:27.049Z,93095.78
2022-08-20T03:57:57.656Z,93083.69
2022-08-20T04:00:31.581Z,93089.41
2022-08-20T04:03:00.710Z,93083.31
2022-08-20T04:05:31.137Z,93091.94
2022-08-20T04:08:03.105Z,93086.97
2022-08-20T04:10:32.340Z,93090.34
2022-08-20T04:13:01.637Z,93085.12
2022-08-20T04:15:29.116Z,93087.97
2022-08-20T04:17:56.686Z,93087.75
2022-08-20T04:20:26.254Z,93082.31
2022-08-20T04:23:02.049Z,93084.25
2022-08-20T04:25:36.189Z,93087.13
2022-08-20T04:28:06.447Z,93088.06
2022-08-20T04:30:35.174Z,93089.56
2022-08-20T04:33:02.812Z,93087.50
2022-08-20T04:35:31.750Z,93091.84
2022-08-20T04:38:15.689Z,93082.19
2022-08-20T04:40:58.425Z,93092.41
2022-08-20T04:43:33.558Z,93088.69
2022-08-20T04:46:06.408Z,93083.28
2022-08-20T04:48:34.222Z,93080.34
2022-08-20T04:51:03.986Z,93077.06
2022-08-20T04:53:31.532Z,93083.34
2022-08-20T04:56:01.294Z,93090.31
2022-08-20T04:58:35.371Z,93085.84
2022-08-20T05:01:11.936Z,93089.13
2022-08-20T05:03:40.737Z,93091.78
2022-08-20T05:06:11.973Z,93092.47
2022-08-20T05:08:40.729Z,93093.66
2022-08-20T05:11:32.949Z,93098.78
2022-08-20T05:13:59.074Z,93091.69
2022-08-20T05:16:26.960Z,93092.44
2022-08-20T05:18:54.621Z,93090.28
2022-08-20T05:21:22.250Z,93091.53
2022-08-20T05:23:49.980Z,93090.00
2022-08-20T05:26:20.375Z,93081.88
2022-08-20T05:28:58.001Z,93078.75
2022-08-20T05:31:33.342Z,93075.56
2022-08-20T05:34:10.654Z,93073.19
2022-08-20T05:36:47.018Z,93073.78
2022-08-20T05:39:20.868Z,93064.72
2022-08-20T05:41:52.345Z,93065.91
2022-08-20T05:44:19.968Z,93070.84
2022-08-20T05:46:48.230Z,93072.06
2022-08-20T05:49:22.183Z,93067.22
2022-08-20T05:51:51.574Z,93062.97
2022-08-20T05:54:19.513Z,93062.03
2022-08-20T05:56:46.916Z,93043.41
2022-08-20T05:59:14.399Z,93045.16
2022-08-20T06:01:43.429Z,93047.28
2022-08-20T06:04:32.171Z,93048.13
2022-08-20T06:07:05.777Z,93049.87
2022-08-20T06:09:35.235Z,93056.41
2022-08-20T06:12:06.365Z,93050.06
2022-08-20T06:14:34.319Z,93049.28
2022-08-20T06:17:22.113Z,93046.03
2022-08-20T06:19:50.086Z,93049.50
2022-08-20T06:22:22.030Z,93043.97
2022-08-20T06:24:53.615Z,93045.38
2022-08-20T06:27:21.700Z,93035.31
2022-08-20T06:29:50.690Z,93044.06
2022-08-20T06:32:28.815Z,93047.69
2022-08-20T06:35:06.092Z,93047.03
2022-08-20T06:37:37.046Z,93046.09
2022-08-20T06:40:13.922Z,93043.13
2022-08-20T06:42:48.215Z,93030.94
2022-08-20T06:45:26.552Z,93044.56
2022-08-20T06:47:57.565Z,93050.50
2022-08-20T06:50:43.242Z,93042.03
2022-08-20T06:53:18.927Z,93046.66
2022-08-20T06:55:50.577Z,93036.56
2022-08-20T06:58:32.808Z,93036.59
2022-08-20T07:01:09.105Z,93032.47
2022-08-20T07:03:55.274Z,93034.28
2022-08-20T07:06:28.069Z,93035.41
2022-08-20T07:08:57.327Z,93035.13
2022-08-20T07:11:28.094Z,93030.81
2022-08-20T07:13:58.574Z,93029.56
2022-08-20T07:16:27.402Z,93027.03
2022-08-20T07:18:55.544Z,93020.84
2022-08-20T07:21:23.166Z,93014.94
2022-08-20T07:23:50.699Z,93015.84
2022-08-20T07:26:18.555Z,93018.66
2022-08-20T07:28:50.112Z,93017.44
2022-08-20T07:31:38.859Z,93014.88
2022-08-20T07:34:11.579Z,93011.44
2022-08-20T07:36:39.607Z,93010.75
2022-08-20T07:39:07.083Z,93006.06
2022-08-20T07:41:35.191Z,93016.78
2022-08-20T07:44:02.884Z,93008.94
2022-08-20T07:46:31.837Z,93009.34
2022-08-20T07:48:59.959Z,93009.09
2022-08-20T07:51:27.877Z,93006.53
2022-08-20T07:53:55.442Z,92998.72
2022-08-20T07:56:24.619Z,93013.53
2022-08-20T07:58:55.735Z,93006.34
2022-08-20T08:01:26.720Z,93009.00
2022-08-20T08:03:54.668Z,93008.41
2022-08-20T08:06:28.955Z,93009.03
2022-08-20T08:09:07.995Z,93000.19
2022-08-20T08:11:38.609Z,93001.66
2022-08-20T08:14:09.035Z,93001.41
2022-08-20T08:16:38.023Z,93000.44
2022-08-20T08:19:09.248Z,92999.44
2022-08-20T08:21:36.738Z,92997.63
2022-08-20T08:24:04.578Z,93002.41
2022-08-20T08:26:32.558Z,93000.69
2022-08-20T08:28:59.990Z,93008.66
2022-08-20T08:31:27.414Z,92999.53
2022-08-20T08:33:55.940Z,92996.09
2022-08-20T08:36:23.411Z,92991.38
2022-08-20T08:38:51.153Z,92991.50
2022-08-20T08:41:50.229Z,92988.47
2022-08-20T08:44:25.225Z,92997.47
2022-08-20T08:46:57.868Z,92987.47
2022-08-20T08:49:38.220Z,92981.59
2022-08-20T08:52:16.238Z,92978.53
2022-08-20T08:54:48.323Z,92974.28
2022-08-20T08:57:16.754Z,92966.50
2022-08-20T08:59:58.243Z,92959.22
2022-08-20T09:02:35.593Z,92965.16
2022-08-20T09:05:16.029Z,92959.84
2022-08-20T09:07:48.586Z,92953.75
2022-08-20T09:10:20.033Z,92947.97
2022-08-20T09:12:52.555Z,92948.00
2022-08-20T09:19:00.057Z,92946.28
2022-08-20T09:21:28.005Z,92942.16
2022-08-20T09:23:55.839Z,92940.63
2022-08-20T09:26:23.390Z,92946.47
2022-08-20T09:28:57.190Z,92949.00
2022-08-20T09:31:24.862Z,92951.22
2022-08-20T09:33:53.175Z,92938.00
2022-08-20T09:36:29.006Z,92953.03
2022-08-20T09:39:03.066Z,92940.97
2022-08-20T09:41:33.701Z,92945.84
2022-08-20T09:44:02.605Z,92945.09
2022-08-20T09:46:30.041Z,92933.06
2022-08-20T09:48:57.769Z,92938.88
2022-08-20T09:51:35.827Z,92931.81
2022-08-20T09:54:06.899Z,92940.44
2022-08-20T09:56:35.962Z,92937.19
2022-08-20T09:59:03.488Z,92932.66
2022-08-20T10:01:31.787Z,92918.59
2022-08-20T10:04:00.035Z,92932.62
2022-08-20T10:06:27.516Z,92924.19
2022-08-20T10:08:55.220Z,92932.56
2022-08-20T10:11:22.939Z,92930.44
2022-08-20T10:13:50.331Z,92925.12
2022-08-20T10:16:17.722Z,92930.84
2022-08-20T10:18:45.739Z,92927.13
2022-08-20T10:21:13.520Z,92927.41
2022-08-20T10:23:41.625Z,92923.38
2022-08-20T10:30:14.753Z,92924.75
2022-08-20T10:32:45.961Z,92923.97
2022-08-20T10:35:13.780Z,92918.31
2022-08-20T10:37:41.226Z,92924.91
2022-08-20T10:40:09.957Z,92922.63
2022-08-20T10:42:42.327Z,92913.34
2022-08-20T10:45:16.389Z,92904.50
2022-08-20T10:47:45.187Z,92909.53
2022-08-20T10:50:16.055Z,92916.25
2022-08-20T10:52:43.989Z,92908.75
2022-08-20T10:55:11.785Z,92912.09
2022-08-20T10:57:40.475Z,92900.66
2022-08-20T11:00:10.499Z,92894.44
2022-08-20T11:02:38.215Z,92897.44
2022-08-20T11:05:07.249Z,92895.66
2022-08-20T11:07:50.562Z,92895.09
2022-08-20T11:10:29.142Z,92896.50
2022-08-20T11:12:57.120Z,92888.56
2022-08-20T11:15:25.385Z,92887.00
2022-08-20T11:17:53.127Z,92874.75
2022-08-20T11:20:23.783Z,92871.22
2022-08-20T11:22:51.969Z,92864.41
2022-08-20T11:25:20.224Z,92871.91
2022-08-20T11:27:49.669Z,92876.97
2022-08-20T11:30:33.536Z,92875.84
2022-08-20T11:33:01.414Z,92876.44
2022-08-20T11:35:49.007Z,92874.09
2022-08-20T11:38:19.191Z,92853.66
2022-08-20T11:40:47.144Z,92845.41
2022-08-20T11:43:16.962Z,92841.66
2022-08-20T11:45:48.559Z,92842.38
2022-08-20T11:48:17.034Z,92855.03
2022-08-20T11:50:45.199Z,92842.09
2022-08-20T11:53:12.602Z,92841.94
2022-08-20T11:55:40.625Z,92854.06
2022-08-20T11:58:08.209Z,92856.78
2022-08-20T12:00:37.246Z,92862.59
2022-08-20T12:03:09.470Z,92872.00
2022-08-20T12:05:39.844Z,92884.22
2022-08-20T12:08:08.709Z,92869.75
2022-08-20T12:10:37.728Z,92867.81
2022-08-20T12:13:07.385Z,92868.03
2022-08-20T12:15:36.950Z,92868.47
2022-08-20T12:18:08.531Z,92865.22
2022-08-20T12:20:37.491Z,92870.88
2022-08-20T12:23:05.521Z,92875.41
2022-08-20T12:25:33.965Z,92876.50
2022-08-20T12:28:02.055Z,92886.19
2022-08-20T12:30:29.404Z,92885.41
2022-08-20T12:32:56.859Z,92882.09
2022-08-20T12:35:25.121Z,92877.84
2022-08-20T12:37:53.150Z,92888.34
2022-08-20T12:40:32.156Z,92888.94
2022-08-20T12:43:02.625Z,92879.19
2022-08-20T12:45:30.837Z,92871.97
2022-08-20T12:48:05.633Z,92862.75
2022-08-20T12:50:35.084Z,92860.25
2022-08-20T12:53:02.845Z,92851.59
2022-08-20T12:55:31.153Z,92871.47
2022-08-20T12:58:01.450Z,92880.75
2022-08-20T13:00:35.840Z,92885.78
2022-08-20T13:03:06.267Z,92880.63
2022-08-20T13:05:35.432Z,92865.56
2022-08-20T13:08:08.384Z,92858.00
2022-08-20T13:10:38.187Z,92859.44
2022-08-20T13:13:05.897Z,92852.69
2022-08-20T13:15:33.635Z,92828.69
2022-08-20T13:18:03.031Z,92811.88
2022-08-20T13:20:31.671Z,92818.59
2022-08-20T13:23:04.850Z,92819.78
2022-08-20T13:25:33.747Z,92819.34
2022-08-20T13:28:04.649Z,92825.75
2022-08-20T13:30:34.340Z,92829.88
2022-08-20T13:33:02.774Z,92828.84
2022-08-20T13:35:30.346Z,92832.91
2022-08-20T13:37:57.790Z,92835.94
2022-08-20T13:40:26.126Z,92853.00
2022-08-20T13:42:53.819Z,92872.53
2022-08-20T13:45:21.294Z,92886.50
2022-08-20T13:47:53.460Z,92897.16
2022-08-20T13:57:58.187Z,92928.34
2022-08-20T14:00:32.339Z,92928.34
2022-08-20T14:03:01.848Z,92927.66
2022-08-20T14:05:30.512Z,92930.00
2022-08-20T14:08:08.243Z,92930.09
2022-08-20T14:10:36.775Z,92932.66
2022-08-20T14:13:06.867Z,92924.91
2022-08-20T14:15:36.089Z,92913.28
2022-08-20T14:18:05.363Z,92917.66
2022-08-20T14:20:33.803Z,92914.47
2022-08-20T14:23:02.380Z,92915.91
2022-08-20T14:25:32.329Z,92909.09
2022-08-20T14:28:10.023Z,92919.84
2022-08-20T14:30:40.097Z,92931.31
2022-08-20T14:33:07.500Z,92952.19
2022-08-20T14:35:34.874Z,92952.56
2022-08-20T14:38:03.322Z,92966.66
2022-08-20T14:40:34.296Z,92972.75
2022-08-20T14:43:01.946Z,92960.72
2022-08-20T14:45:29.710Z,92977.41
2022-08-20T14:47:58.755Z,92971.50
2022-08-20T14:50:32.644Z,92978.31
2022-08-20T14:53:01.486Z,92983.13
2022-08-20T14:55:32.466Z,92981.78
2022-08-20T14:58:00.265Z,92972.91
2022-08-20T15:00:31.356Z,92967.13
2022-08-20T15:02:59.143Z,92961.72
2022-08-20T15:05:29.738Z,92949.13
2022-08-20T15:07:57.701Z,92949.53
2022-08-20T15:10:30.673Z,92934.09
2022-08-20T15:12:59.289Z,92915.91
2022-08-20T15:15:28.214Z,92907.16
2022-08-20T15:18:00.421Z,92916.69
2022-08-20T15:20:31.267Z,92923.56
2022-08-20T15:22:59.411Z,92917.66
2022-08-20T15:25:36.832Z,92903.19
2022-08-20T15:28:08.933Z,92899.31
2022-08-20T15:30:38.946Z,92890.84
2022-08-20T15:33:07.495Z,92893.84
2022-08-20T15:35:34.985Z,92890.94
2022-08-20T15:38:03.141Z,92886.22
2022-08-20T15:40:31.920Z,92886.47
2022-08-20T15:43:01.503Z,92891.28
2022-08-20T15:45:29.394Z,92891.63
2022-08-20T15:48:01.934Z,92893.12
2022-08-20T15:51:00.531Z,92886.88
2022-08-20T15:53:36.122Z,92875.34
2022-08-20T15:56:22.696Z,92867.66
2022-08-20T15:58:59.153Z,92849.50
2022-08-20T16:01:45.397Z,92833.97
2022-08-20T16:04:35.223Z,92816.94
2022-08-20T16:07:10.619Z,92802.72
2022-08-20T16:10:02.021Z,92759.50
2022-08-20T16:12:35.153Z,92726.25
2022-08-20T16:15:25.878Z,92731.16
2022-08-20T16:18:03.145Z,92749.44
2022-08-20T16:20:38.969Z,92781.50
2022-08-20T16:23:07.968Z,92792.28
2022-08-20T16:25:59.024Z,92821.31
2022-08-20T16:28:32.931Z,92846.22
2022-08-20T16:31:14.102Z,92825.06
2022-08-20T16:34:33.520Z,92816.56
2022-08-20T16:37:41.725Z,92824.91
2022-08-20T16:40:39.213Z,92819.75
2022-08-20T16:43:54.825Z,92814.28
2022-08-20T16:46:27.195Z,92815.75
2022-08-20T16:49:00.354Z,92812.47
2022-08-20T16:51:33.889Z,92817.69
2022-08-20T16:54:01.662Z,92834.56
2022-08-20T16:56:49.615Z,92850.03
2022-08-20T16:59:26.517Z,92859.84
2022-08-20T17:02:21.220Z,92885.00
2022-08-20T17:04:59.341Z,92905.84
2022-08-20T17:07:43.326Z,92923.81
2022-08-20T17:10:29.919Z,92928.66
2022-08-20T17:13:19.688Z,92916.66
2022-08-20T17:15:56.238Z,92919.50
2022-08-20T17:18:26.689Z,92903.44
2022-08-20T17:21:00.974Z,92883.00
2022-08-20T17:23:30.832Z,92861.91
2022-08-20T17:26:02.869Z,92868.31
2022-08-20T17:28:35.214Z,92891.81
2022-08-20T17:31:03.658Z,92880.41
2022-08-20T17:33:39.074Z,92885.59
2022-08-20T17:36:22.671Z,92876.63
2022-08-20T17:39:01.095Z,92878.62
2022-08-20T17:41:33.284Z,92870.12
2022-08-20T17:44:08.327Z,92872.97
2022-08-20T17:46:44.163Z,92864.59
2022-08-20T17:49:18.129Z,92903.22
2022-08-20T17:51:52.887Z,92963.94
2022-08-20T17:54:32.862Z,92982.38
2022-08-20T17:57:12.921Z,92988.94
2022-08-20T18:00:02.347Z,93019.19
2022-08-20T18:02:34.255Z,93037.19
2022-08-20T18:05:02.993Z,93051.91
2022-08-20T18:08:11.861Z,93059.69
2022-08-20T18:10:59.489Z,93064.28
2022-08-20T18:14:10.650Z,93080.22
2022-08-20T18:17:16.352Z,93083.19
2022-08-20T18:20:05.555Z,93085.09
2022-08-20T18:22:50.249Z,93072.84
2022-08-20T18:25:36.999Z,93045.09
2022-08-20T18:28:23.392Z,93049.78
2022-08-20T18:31:00.579Z,93052.28
2022-08-20T18:33:30.220Z,93079.81
2022-08-20T18:36:28.483Z,93090.19
2022-08-20T18:38:59.207Z,93088.47
2022-08-20T18:41:30.385Z,93103.03
2022-08-20T18:44:27.081Z,93117.75
2022-08-20T18:46:59.187Z,93112.78
2022-08-20T18:49:39.213Z,93108.44
2022-08-20T18:52:11.439Z,93113.75
2022-08-20T18:54:43.320Z,93122.19
2022-08-20T18:57:23.053Z,93115.44
2022-08-20T19:00:14.079Z,93119.66
2022-08-20T19:03:00.778Z,93126.75
2022-08-20T19:06:08.970Z,93135.03
2022-08-20T19:08:40.695Z,93138.31
2022-08-20T19:11:28.687Z,93133.47
2022-08-20T19:14:33.825Z,93118.09
2022-08-20T19:17:11.566Z,93118.37
2022-08-20T19:19:39.160Z,93119.06
2022-08-20T19:22:07.263Z,93110.66
2022-08-20T19:24:35.740Z,93111.31
2022-08-20T19:27:06.951Z,93125.16
2022-08-20T19:29:39.861Z,93138.59
2022-08-20T19:32:09.884Z,93141.97
2022-08-20T19:34:38.373Z,93129.88
2022-08-20T19:37:35.203Z,93120.03
2022-08-20T19:40:01.515Z,93131.00
2022-08-20T19:42:40.638Z,93122.53
2022-08-20T19:45:16.082Z,93114.16
2022-08-20T19:47:57.150Z,93112.25
2022-08-20T19:50:40.098Z,93121.25
2022-08-20T19:53:15.175Z,93130.06
2022-08-20T19:55:43.006Z,93144.13
2022-08-20T19:58:26.080Z,93140.87
2022-08-20T20:00:55.846Z,93142.59
2022-08-20T20:03:34.414Z,93153.81
2022-08-20T20:06:18.177Z,93159.56
2022-08-20T20:08:54.787Z,93162.28
2022-08-20T20:11:36.751Z,93182.59
2022-08-20T20:14:09.944Z,93175.31
2022-08-20T20:16:39.858Z,93175.22
2022-08-20T20:19:26.279Z,93179.87
2022-08-20T20:22:08.472Z,93166.31
2022-08-20T20:24:50.972Z,93154.78
2022-08-20T20:27:22.836Z,93160.91
2022-08-20T20:29:59.161Z,93142.31
2022-08-20T20:32:27.970Z,93126.31
2022-08-20T20:34:59.657Z,93133.97
2022-08-20T20:37:49.980Z,93119.44
2022-08-20T20:40:30.941Z,93080.28
2022-08-20T20:43:12.143Z,93049.72
2022-08-20T20:45:47.088Z,93028.91
2022-08-20T20:48:18.408Z,93024.12
2022-08-20T20:50:48.324Z,93044.31
2022-08-20T20:53:32.305Z,93062.94
2022-08-20T20:56:40.030Z,93062.84
2022-08-20T20:59:09.989Z,93070.25
2022-08-20T21:01:49.605Z,93040.63
2022-08-20T21:04:23.241Z,93008.84
2022-08-20T21:06:53.510Z,92967.88
2022-08-20T21:09:21.995Z,92950.59
2022-08-20T21:11:49.842Z,92947.47
2022-08-20T21:14:18.635Z,92931.66
2022-08-20T21:16:46.189Z,92929.97
2022-08-20T21:19:14.102Z,92929.25
2022-08-20T21:21:43.061Z,92934.94
2022-08-20T21:24:10.960Z,92929.44
2022-08-20T21:26:39.606Z,92920.28
2022-08-20T21:29:09.623Z,92907.66
2022-08-20T21:31:43.719Z,92900.62
2022-08-20T21:34:14.172Z,92896.22
2022-08-20T21:36:41.951Z,92911.38
2022-08-20T21:39:09.725Z,92917.91
2022-08-20T21:41:37.972Z,92899.16
2022-08-20T21:44:17.969Z,92892.97
2022-08-20T21:46:51.084Z,92896.34
2022-08-20T21:49:20.039Z,92898.88
2022-08-20T21:51:49.980Z,92893.34
2022-08-20T21:54:18.366Z,92900.78
2022-08-20T21:56:52.793Z,92909.62
2022-08-20T21:59:22.429Z,92894.28
2022-08-20T22:01:50.602Z,92911.84
2022-08-20T22:04:18.736Z,92921.56
2022-08-20T22:06:46.681Z,92917.81
2022-08-20T22:09:14.595Z,92915.72
2022-08-20T22:11:42.229Z,92923.47
2022-08-20T22:14:11.780Z,92940.16
2022-08-20T22:16:39.208Z,92932.56
2022-08-20T22:19:16.242Z,92927.25
2022-08-20T22:21:44.313Z,92928.97
2022-08-20T22:24:13.493Z,92931.50
2022-08-20T22:26:42.079Z,92931.28
2022-08-20T22:29:11.848Z,92941.25
2022-08-20T22:31:42.977Z,92934.38
2022-08-20T22:34:13.581Z,92936.09
2022-08-20T22:36:41.768Z,92941.59
2022-08-20T22:39:09.746Z,92946.09
2022-08-20T22:41:37.746Z,92952.22
2022-08-20T22:44:05.100Z,92949.19
2022-08-20T22:46:44.969Z,92942.31
2022-08-20T22:49:22.520Z,92941.84
2022-08-20T22:51:49.825Z,92936.34
2022-08-20T22:54:21.055Z,92930.31
2022-08-20T22:56:48.368Z,92924.41
2022-08-20T22:59:19.806Z,92925.00
2022-08-20T23:01:47.376Z,92922.97
2022-08-20T23:04:22.178Z,92909.88
2022-08-20T23:06:49.924Z,92911.47
2022-08-20T23:09:20.953Z,92908.00
2022-08-20T23:11:49.178Z,92900.31
2022-08-20T23:14:17.066Z,92893.31
2022-08-20T23:16:47.464Z,92902.75
2022-08-20T23:19:23.219Z,92885.41
2022-08-20T23:21:52.119Z,92880.03
2022-08-20T23:24:19.765Z,92882.72
2022-08-20T23:26:52.747Z,92871.50
2022-08-20T23:29:25.895Z,92873.75
2022-08-20T23:31:55.997Z,92870.28
2022-08-20T23:34:25.218Z,92862.25
2022-08-20T23:36:52.714Z,92863.72
2022-08-20T23:39:20.366Z,92862.81
2022-08-20T23:41:48.312Z,92865.75
2022-08-20T23:44:25.805Z,92870.22
2022-08-20T23:46:57.752Z,92867.69
2022-08-20T23:49:25.722Z,92861.66
2022-08-20T23:51:53.138Z,92869.50
2022-08-20T23:54:21.053Z,92860.06
2022-08-20T23:56:48.391Z,92862.44
2022-08-20T23:59:15.648Z,92858.06
